Reading, Jamaica
Current Conditions -  °F | °C
As of 7:00 AM on Monday 26 Jan 2015 (Local Time) from MKJS Reporting Station
Scattered Clouds Scattered Clouds  
Wind Chill: 73°   Ceiling: Unl
Heat Index: 73°   Visibility: 6mi
Dew Point: 70°   Wind: 2mph
Humidity: 88%   Direction: NA
Pressure: 29.97"   Gusts: NA
Location:  18.45°N, 77.95°W
Report Text: MKJS 261200Z VRB02KT 9999 FEW022 SCT036 23/21 Q1015
Loading
Personal Weather Stations






























Interactive Weather Map New forecast layout! Learn more

10-Day Weather Forecast

Advertisements
Track Severe Weather on mobile